createdAt,value
2022-07-31T00:00:15.196Z,100.00
2022-07-31T00:02:41.671Z,100.00
2022-07-31T00:05:08.520Z,100.00
2022-07-31T00:07:34.881Z,100.00
2022-07-31T00:10:01.297Z,99.66
2022-07-31T00:12:27.795Z,100.00
2022-07-31T00:14:54.789Z,100.00
2022-07-31T00:17:21.268Z,100.00
2022-07-31T00:19:47.624Z,100.00
2022-07-31T00:22:13.977Z,100.00
2022-07-31T00:24:40.303Z,100.00
2022-07-31T00:27:07.121Z,100.00
2022-07-31T00:29:33.637Z,100.00
2022-07-31T00:31:59.976Z,100.00
2022-07-31T00:34:26.368Z,100.00
2022-07-31T00:36:52.735Z,100.00
2022-07-31T00:39:19.218Z,100.00
2022-07-31T00:41:46.904Z,100.00
2022-07-31T00:44:14.213Z,100.00
2022-07-31T00:46:42.128Z,100.00
2022-07-31T00:49:09.979Z,100.00
2022-07-31T00:51:37.965Z,100.00
2022-07-31T00:54:05.329Z,100.00
2022-07-31T00:56:32.220Z,100.00
2022-07-31T00:58:58.602Z,100.00
2022-07-31T01:01:25.086Z,100.00
2022-07-31T01:03:51.660Z,100.00
2022-07-31T01:06:18.210Z,100.00
2022-07-31T01:08:44.657Z,100.00
2022-07-31T01:11:28.089Z,100.00
2022-07-31T01:13:59.232Z,100.00
2022-07-31T01:16:29.111Z,100.00
2022-07-31T01:18:57.360Z,100.00
2022-07-31T01:21:29.143Z,100.00
2022-07-31T01:24:08.547Z,100.00
2022-07-31T01:26:43.385Z,100.00
2022-07-31T01:29:16.340Z,100.00
2022-07-31T01:31:51.159Z,100.00
2022-07-31T01:34:34.746Z,100.00
2022-07-31T01:37:17.513Z,100.00
2022-07-31T01:39:49.430Z,100.00
2022-07-31T01:42:19.509Z,100.00
2022-07-31T01:44:51.093Z,100.00
2022-07-31T01:47:20.247Z,100.00
2022-07-31T01:49:49.963Z,100.00
2022-07-31T01:52:17.898Z,100.00
2022-07-31T01:54:45.154Z,100.00
2022-07-31T01:57:13.164Z,100.00
2022-07-31T01:59:44.793Z,100.00
2022-07-31T02:02:12.479Z,100.00
2022-07-31T02:04:39.462Z,100.00
2022-07-31T02:07:08.025Z,100.00
2022-07-31T02:09:35.811Z,100.00
2022-07-31T02:12:03.255Z,100.00
2022-07-31T02:14:30.754Z,100.00
2022-07-31T02:16:59.348Z,100.00
2022-07-31T02:19:28.293Z,100.00
2022-07-31T02:21:59.273Z,100.00
2022-07-31T02:24:25.659Z,100.00
2022-07-31T02:26:52.963Z,100.00
2022-07-31T02:29:21.687Z,100.00
2022-07-31T02:32:03.114Z,100.00
2022-07-31T02:34:32.218Z,100.00
2022-07-31T02:37:01.243Z,100.00
2022-07-31T02:39:30.796Z,100.00
2022-07-31T02:41:59.410Z,100.00
2022-07-31T02:44:27.772Z,100.00
2022-07-31T02:46:55.110Z,100.00
2022-07-31T02:49:21.667Z,100.00
2022-07-31T02:51:48.205Z,100.00
2022-07-31T02:54:17.674Z,100.00
2022-07-31T02:56:46.169Z,100.00
2022-07-31T02:59:12.536Z,100.00
2022-07-31T03:01:38.936Z,100.00
2022-07-31T03:04:05.291Z,100.00
2022-07-31T03:06:31.648Z,100.00
2022-07-31T03:08:57.985Z,100.00
2022-07-31T03:11:24.559Z,100.00
2022-07-31T03:13:54.042Z,100.00
2022-07-31T03:16:21.983Z,100.00
2022-07-31T03:18:49.507Z,100.00
2022-07-31T03:21:15.982Z,100.00
2022-07-31T03:23:42.497Z,100.00
2022-07-31T03:26:10.505Z,100.00
2022-07-31T03:28:36.936Z,100.00
2022-07-31T03:31:04.412Z,100.00
2022-07-31T03:33:30.839Z,100.00
2022-07-31T03:35:57.941Z,100.00
2022-07-31T03:38:39.015Z,100.00
2022-07-31T03:41:09.495Z,100.00
2022-07-31T03:43:46.973Z,100.00
2022-07-31T03:46:16.777Z,100.00
2022-07-31T03:48:43.248Z,100.00
2022-07-31T03:51:10.148Z,100.00
2022-07-31T03:53:37.325Z,100.00
2022-07-31T03:56:06.305Z,100.00
2022-07-31T03:58:33.141Z,100.00
2022-07-31T04:00:59.664Z,100.00
2022-07-31T04:03:31.003Z,100.00
2022-07-31T04:05:57.416Z,100.00
2022-07-31T04:08:23.774Z,100.00
2022-07-31T04:10:50.225Z,100.00
2022-07-31T04:13:16.587Z,100.00
2022-07-31T04:15:42.942Z,100.00
2022-07-31T04:18:09.270Z,100.00
2022-07-31T04:20:35.599Z,100.00
2022-07-31T04:23:03.827Z,100.00
2022-07-31T04:25:33.683Z,100.00
2022-07-31T04:28:01.299Z,100.00
2022-07-31T04:30:27.674Z,100.00
2022-07-31T04:32:54.022Z,100.00
2022-07-31T04:35:20.383Z,100.00
2022-07-31T04:37:48.456Z,100.00
2022-07-31T04:40:15.816Z,100.00
2022-07-31T04:42:42.157Z,100.00
2022-07-31T04:45:09.270Z,100.00
2022-07-31T04:47:35.630Z,100.00
2022-07-31T04:50:01.983Z,100.00
2022-07-31T04:52:28.359Z,100.00
2022-07-31T04:54:54.711Z,100.00
2022-07-31T04:57:22.098Z,100.00
2022-07-31T04:59:57.857Z,100.00
2022-07-31T05:02:27.494Z,100.00
2022-07-31T05:04:56.739Z,100.00
2022-07-31T05:07:23.740Z,100.00
2022-07-31T05:09:52.199Z,100.00
2022-07-31T05:12:18.581Z,100.00
2022-07-31T05:14:44.987Z,100.00
2022-07-31T05:17:11.533Z,99.27
2022-07-31T05:19:38.075Z,98.58
2022-07-31T05:22:05.359Z,97.51
2022-07-31T05:24:32.784Z,97.52
2022-07-31T05:27:04.171Z,98.93
2022-07-31T05:29:31.808Z,99.31
2022-07-31T05:31:59.760Z,99.59
2022-07-31T05:34:30.047Z,98.53
2022-07-31T05:36:59.035Z,99.02
2022-07-31T05:39:25.441Z,98.39
2022-07-31T05:41:52.609Z,97.79
2022-07-31T05:44:18.962Z,98.23
2022-07-31T05:46:45.408Z,97.98
2022-07-31T05:49:11.881Z,97.73
2022-07-31T05:51:38.319Z,96.56
2022-07-31T05:54:04.762Z,96.01
2022-07-31T05:56:31.090Z,96.72
2022-07-31T05:58:57.414Z,96.31
2022-07-31T06:01:24.013Z,94.66
2022-07-31T06:03:52.106Z,93.51
2022-07-31T06:06:19.399Z,94.26
2022-07-31T06:08:45.754Z,94.10
2022-07-31T06:11:12.128Z,95.47
2022-07-31T06:13:38.749Z,95.73
2022-07-31T06:16:11.959Z,95.66
2022-07-31T06:18:38.403Z,95.67
2022-07-31T06:21:04.739Z,94.95
2022-07-31T06:23:32.228Z,94.26
2022-07-31T06:25:58.863Z,94.98
2022-07-31T06:28:27.290Z,94.61
2022-07-31T06:31:22.390Z,93.69
2022-07-31T06:33:50.043Z,92.34
2022-07-31T06:36:18.392Z,91.17
2022-07-31T06:38:45.801Z,92.12
2022-07-31T06:41:32.240Z,92.31
2022-07-31T06:43:58.600Z,91.67
2022-07-31T06:46:24.943Z,90.61
2022-07-31T06:48:51.338Z,91.13
2022-07-31T06:51:32.991Z,91.82
2022-07-31T06:54:00.337Z,92.40
2022-07-31T06:56:26.801Z,92.29
2022-07-31T06:58:53.330Z,90.06
2022-07-31T07:01:19.713Z,90.61
2022-07-31T07:03:46.679Z,91.48
2022-07-31T07:06:13.206Z,91.94
2022-07-31T07:08:42.317Z,90.46
2022-07-31T07:11:12.172Z,89.64
2022-07-31T07:13:45.104Z,88.11
2022-07-31T07:16:13.487Z,86.65
2022-07-31T07:18:39.887Z,85.25
2022-07-31T07:21:06.256Z,82.31
2022-07-31T07:23:33.569Z,82.42
2022-07-31T07:25:59.940Z,83.69
2022-07-31T07:28:30.680Z,83.64
2022-07-31T07:30:57.736Z,82.92
2022-07-31T07:33:41.604Z,83.53
2022-07-31T07:36:22.220Z,81.25
2022-07-31T07:38:51.548Z,81.34
2022-07-31T07:41:18.510Z,80.14
2022-07-31T07:43:45.109Z,80.18
2022-07-31T07:46:17.879Z,78.58
2022-07-31T07:48:44.294Z,73.92
2022-07-31T07:51:10.662Z,73.30
2022-07-31T07:53:37.449Z,71.92
2022-07-31T07:56:04.027Z,72.71
2022-07-31T07:58:30.423Z,71.98
2022-07-31T08:00:56.848Z,71.30
2022-07-31T08:03:48.815Z,72.45
2022-07-31T08:06:10.066Z,72.32
2022-07-31T08:08:36.509Z,72.67
2022-07-31T08:11:04.699Z,71.31
2022-07-31T08:13:31.180Z,71.40
2022-07-31T08:15:57.609Z,72.13
2022-07-31T08:18:28.419Z,73.03
2022-07-31T08:20:55.361Z,74.43
2022-07-31T08:23:21.774Z,73.75
2022-07-31T08:25:48.119Z,73.60
2022-07-31T08:28:19.559Z,74.72
2022-07-31T08:30:50.536Z,74.31
2022-07-31T08:33:16.970Z,72.32
2022-07-31T08:35:44.792Z,72.17
2022-07-31T08:38:18.453Z,71.53
2022-07-31T08:40:45.844Z,68.73
2022-07-31T08:44:02.573Z,68.08
2022-07-31T08:46:02.688Z,69.34
2022-07-31T08:48:32.521Z,72.88
2022-07-31T08:51:01.780Z,73.60
2022-07-31T08:53:30.364Z,74.08
2022-07-31T08:55:57.877Z,75.07
2022-07-31T08:58:24.556Z,75.43
2022-07-31T09:00:51.499Z,73.13
2022-07-31T09:03:18.126Z,75.30
2022-07-31T09:05:44.551Z,74.94
2022-07-31T09:08:14.550Z,74.88
2022-07-31T09:10:43.958Z,75.82
2022-07-31T09:13:17.766Z,74.57
2022-07-31T09:15:44.655Z,74.12
2022-07-31T09:18:21.851Z,73.92
2022-07-31T09:20:57.932Z,72.86
2022-07-31T09:23:26.416Z,74.47
2022-07-31T09:26:00.155Z,73.46
2022-07-31T09:28:36.032Z,71.73
2022-07-31T09:31:04.322Z,71.92
2022-07-31T09:33:31.488Z,72.78
2022-07-31T09:35:59.692Z,68.36
2022-07-31T09:38:38.899Z,67.72
2022-07-31T09:41:53.494Z,69.69
2022-07-31T09:44:10.126Z,69.54
2022-07-31T09:46:45.297Z,70.34
2022-07-31T09:49:12.223Z,67.56
2022-07-31T09:51:43.486Z,65.93
2022-07-31T09:54:27.478Z,66.24
2022-07-31T09:56:54.048Z,66.86
2022-07-31T09:59:20.427Z,67.55
2022-07-31T10:01:51.129Z,65.82
2022-07-31T10:04:19.896Z,66.41
2022-07-31T10:06:51.419Z,65.42
2022-07-31T10:09:20.266Z,67.36
2022-07-31T10:11:49.601Z,65.50
2022-07-31T10:14:23.913Z,66.50
2022-07-31T10:16:56.133Z,67.64
2022-07-31T10:19:23.569Z,69.56
2022-07-31T10:21:56.475Z,67.33
2022-07-31T10:24:28.295Z,67.27
2022-07-31T10:27:01.123Z,65.92
2022-07-31T10:29:40.563Z,63.99
2022-07-31T10:32:08.342Z,63.52
2022-07-31T10:34:35.795Z,62.84
2022-07-31T10:37:11.093Z,60.90
2022-07-31T10:39:44.154Z,60.86
2022-07-31T10:42:22.754Z,60.34
2022-07-31T10:44:58.149Z,59.32
2022-07-31T10:47:26.051Z,60.20
2022-07-31T10:49:52.414Z,57.69
2022-07-31T10:52:30.088Z,58.15
2022-07-31T10:54:59.391Z,59.42
2022-07-31T10:57:30.544Z,58.13
2022-07-31T11:00:07.757Z,56.42
2022-07-31T11:02:35.429Z,56.29
2022-07-31T11:05:22.801Z,56.77
2022-07-31T11:08:07.559Z,55.30
2022-07-31T11:10:34.406Z,54.97
2022-07-31T11:13:05.090Z,56.18
2022-07-31T11:15:31.997Z,55.26
2022-07-31T11:18:23.629Z,54.17
2022-07-31T11:20:48.492Z,54.89
2022-07-31T11:23:17.625Z,56.05
2022-07-31T11:25:46.175Z,54.06
2022-07-31T11:28:24.416Z,54.71
2022-07-31T11:30:53.051Z,53.16
2022-07-31T11:33:41.536Z,53.89
2022-07-31T11:36:20.788Z,52.83
2022-07-31T11:38:49.822Z,52.97
2022-07-31T11:41:17.323Z,54.01
2022-07-31T11:43:51.561Z,52.80
2022-07-31T11:46:29.043Z,54.13
2022-07-31T11:48:56.940Z,52.56
2022-07-31T11:51:24.836Z,53.52
2022-07-31T11:53:57.449Z,52.50
2022-07-31T11:56:26.776Z,52.71
2022-07-31T11:58:55.822Z,52.30
2022-07-31T12:01:27.658Z,51.23
2022-07-31T12:03:54.898Z,52.59
2022-07-31T12:06:21.988Z,52.19
2022-07-31T12:08:49.820Z,49.88
2022-07-31T12:11:19.005Z,50.98
2022-07-31T12:13:49.180Z,51.06
2022-07-31T12:16:16.933Z,50.61
2022-07-31T12:18:52.241Z,50.54
2022-07-31T12:21:20.017Z,49.72
2022-07-31T12:23:51.702Z,50.04
2022-07-31T12:26:26.292Z,49.70
2022-07-31T12:29:08.833Z,48.61
2022-07-31T12:31:52.487Z,50.29
2022-07-31T12:34:45.463Z,47.52
2022-07-31T12:37:12.637Z,48.86
2022-07-31T12:39:59.489Z,46.98
2022-07-31T12:42:30.708Z,47.84
2022-07-31T12:45:18.270Z,48.22
2022-07-31T12:47:52.231Z,48.49
2022-07-31T12:50:22.896Z,49.33
2022-07-31T12:52:49.358Z,48.92
2022-07-31T12:55:17.182Z,49.29
2022-07-31T12:57:50.434Z,48.83
2022-07-31T13:00:18.379Z,48.03
2022-07-31T13:02:45.185Z,47.73
2022-07-31T13:05:11.784Z,49.22
2022-07-31T13:07:38.151Z,48.41
2022-07-31T13:10:14.856Z,47.70
2022-07-31T13:12:42.358Z,48.88
2022-07-31T13:15:09.586Z,48.70
2022-07-31T13:17:35.926Z,48.66
2022-07-31T13:20:02.397Z,48.86
2022-07-31T13:22:28.806Z,49.43
2022-07-31T13:24:55.273Z,49.03
2022-07-31T13:27:21.718Z,48.45
2022-07-31T13:29:48.200Z,48.62
2022-07-31T13:32:14.729Z,50.52
2022-07-31T13:34:41.115Z,49.29
2022-07-31T13:37:07.727Z,50.67
2022-07-31T13:39:34.199Z,50.18
2022-07-31T13:42:00.580Z,50.31
2022-07-31T13:44:26.963Z,50.17
2022-07-31T13:46:53.371Z,51.41
2022-07-31T13:49:20.335Z,51.00
2022-07-31T13:51:46.763Z,50.72
2022-07-31T13:54:13.300Z,52.31
2022-07-31T13:56:42.711Z,52.97
2022-07-31T13:59:11.347Z,51.80
2022-07-31T14:02:03.580Z,51.28
2022-07-31T14:04:24.960Z,51.29
2022-07-31T14:06:51.793Z,51.75
2022-07-31T14:09:19.032Z,52.63
2022-07-31T14:11:46.094Z,52.57
2022-07-31T14:14:15.020Z,54.99
2022-07-31T14:16:48.758Z,53.33
2022-07-31T14:19:15.130Z,55.12
2022-07-31T14:21:41.523Z,54.72
2022-07-31T14:24:23.106Z,57.01
2022-07-31T14:26:49.462Z,56.40
2022-07-31T14:29:15.806Z,58.53
2022-07-31T14:31:42.187Z,57.59
2022-07-31T14:34:08.524Z,58.87
2022-07-31T14:36:34.965Z,57.62
2022-07-31T14:39:02.443Z,58.21
2022-07-31T14:41:28.831Z,61.18
2022-07-31T14:43:55.181Z,57.90
2022-07-31T14:46:21.529Z,57.64
2022-07-31T14:48:47.874Z,55.96
2022-07-31T14:51:18.741Z,56.28
2022-07-31T14:53:46.074Z,56.96
2022-07-31T14:56:12.458Z,56.60
2022-07-31T14:58:58.504Z,56.81
2022-07-31T15:01:30.445Z,56.84
2022-07-31T15:03:57.746Z,59.77
2022-07-31T15:06:51.098Z,59.79
2022-07-31T15:09:10.480Z,61.42
2022-07-31T15:11:59.338Z,62.28
2022-07-31T15:14:23.678Z,62.69
2022-07-31T15:16:50.419Z,64.92
2022-07-31T15:19:16.799Z,67.35
2022-07-31T15:22:10.685Z,69.06
2022-07-31T15:24:33.077Z,72.90
2022-07-31T15:26:59.456Z,75.22
2022-07-31T15:29:25.913Z,77.26
2022-07-31T15:32:12.282Z,78.44
2022-07-31T15:34:38.682Z,81.35
2022-07-31T15:37:05.397Z,83.47
2022-07-31T15:39:32.093Z,85.13
2022-07-31T15:41:58.406Z,86.56
2022-07-31T15:44:25.132Z,87.98
2022-07-31T15:46:51.593Z,89.75
2022-07-31T15:49:18.026Z,91.62
2022-07-31T15:51:44.443Z,92.87
2022-07-31T15:54:10.797Z,94.41
2022-07-31T15:56:37.194Z,97.06
2022-07-31T15:59:03.695Z,96.68
2022-07-31T16:01:30.121Z,97.30
2022-07-31T16:03:56.549Z,98.39
2022-07-31T16:06:28.159Z,99.32
2022-07-31T16:08:58.643Z,100.00
2022-07-31T16:11:24.998Z,100.00
2022-07-31T16:14:11.399Z,100.00
2022-07-31T16:16:37.788Z,100.00
2022-07-31T16:19:04.278Z,100.00
2022-07-31T16:21:30.632Z,100.00
2022-07-31T16:23:57.019Z,100.00
2022-07-31T16:26:23.389Z,100.00
2022-07-31T16:28:53.873Z,100.00
2022-07-31T16:31:30.235Z,100.00
2022-07-31T16:33:57.190Z,100.00
2022-07-31T16:36:24.648Z,100.00
2022-07-31T16:39:18.485Z,100.00
2022-07-31T16:41:38.819Z,100.00
2022-07-31T16:44:21.232Z,100.00
2022-07-31T16:46:51.348Z,100.00
2022-07-31T16:49:35.699Z,100.00
2022-07-31T16:52:06.441Z,100.00
2022-07-31T16:54:32.862Z,100.00
2022-07-31T16:56:59.373Z,100.00
2022-07-31T16:59:25.745Z,100.00
2022-07-31T17:01:54.084Z,100.00
2022-07-31T17:04:27.615Z,100.00
2022-07-31T17:06:54.704Z,100.00
2022-07-31T17:09:21.662Z,100.00
2022-07-31T17:11:52.940Z,100.00
2022-07-31T17:14:23.077Z,100.00
2022-07-31T17:16:51.287Z,100.00
2022-07-31T17:19:42.902Z,100.00
2022-07-31T17:22:07.450Z,100.00
2022-07-31T17:24:37.178Z,100.00
2022-07-31T17:27:06.421Z,100.00
2022-07-31T17:29:33.036Z,100.00
2022-07-31T17:31:59.423Z,100.00
2022-07-31T17:34:26.035Z,100.00
2022-07-31T17:36:52.379Z,100.00
2022-07-31T17:39:18.823Z,100.00
2022-07-31T17:41:45.183Z,100.00
2022-07-31T17:44:11.684Z,100.00
2022-07-31T17:46:48.280Z,100.00
2022-07-31T17:49:19.207Z,100.00
2022-07-31T17:51:57.672Z,100.00
2022-07-31T17:54:27.781Z,100.00
2022-07-31T17:56:54.284Z,100.00
2022-07-31T17:59:20.707Z,100.00
2022-07-31T18:01:51.936Z,100.00
2022-07-31T18:04:19.191Z,100.00
2022-07-31T18:06:45.632Z,100.00
2022-07-31T18:09:12.017Z,100.00
2022-07-31T18:11:38.376Z,100.00
2022-07-31T18:14:05.811Z,100.00
2022-07-31T18:16:33.327Z,100.00
2022-07-31T18:18:59.732Z,100.00
2022-07-31T18:21:26.161Z,100.00
2022-07-31T18:23:52.704Z,100.00
2022-07-31T18:26:19.099Z,100.00
2022-07-31T18:28:45.479Z,100.00
2022-07-31T18:31:24.221Z,100.00
2022-07-31T18:33:58.166Z,100.00
2022-07-31T18:36:24.519Z,100.00
2022-07-31T18:38:51.954Z,100.00
2022-07-31T18:41:18.941Z,100.00
2022-07-31T18:43:45.328Z,100.00
2022-07-31T18:46:11.660Z,100.00
2022-07-31T18:48:38.041Z,100.00
2022-07-31T18:51:05.495Z,100.00
2022-07-31T18:53:33.377Z,100.00
2022-07-31T18:55:59.981Z,100.00
2022-07-31T18:58:26.647Z,100.00
2022-07-31T19:00:55.270Z,100.00
2022-07-31T19:03:22.265Z,100.00
2022-07-31T19:05:50.158Z,100.00
2022-07-31T19:08:16.618Z,100.00
2022-07-31T19:10:43.016Z,100.00
2022-07-31T19:13:09.415Z,100.00
2022-07-31T19:15:45.109Z,100.00
2022-07-31T19:18:11.491Z,100.00
2022-07-31T19:21:00.153Z,100.00
2022-07-31T19:23:27.058Z,100.00
2022-07-31T19:26:02.718Z,100.00
2022-07-31T19:28:34.663Z,100.00
2022-07-31T19:31:01.095Z,100.00
2022-07-31T19:33:27.640Z,100.00
2022-07-31T19:35:58.888Z,100.00
2022-07-31T19:38:28.369Z,100.00
2022-07-31T19:40:55.089Z,100.00
2022-07-31T19:43:21.454Z,100.00
2022-07-31T19:45:58.701Z,100.00
2022-07-31T19:48:36.272Z,100.00
2022-07-31T19:51:02.672Z,100.00
2022-07-31T19:53:29.112Z,100.00
2022-07-31T19:55:55.580Z,100.00
2022-07-31T19:58:21.953Z,100.00
2022-07-31T20:00:48.598Z,100.00
2022-07-31T20:03:15.001Z,100.00
2022-07-31T20:05:41.441Z,100.00
2022-07-31T20:08:07.883Z,100.00
2022-07-31T20:10:34.298Z,100.00
2022-07-31T20:13:00.714Z,100.00
2022-07-31T20:15:27.385Z,100.00
2022-07-31T20:18:26.660Z,100.00
2022-07-31T20:20:56.908Z,100.00
2022-07-31T20:23:23.686Z,100.00
2022-07-31T20:25:50.137Z,100.00
2022-07-31T20:28:16.561Z,100.00
2022-07-31T20:30:42.933Z,100.00
2022-07-31T20:33:11.134Z,100.00
2022-07-31T20:35:49.450Z,100.00
2022-07-31T20:38:24.212Z,100.00
2022-07-31T20:40:55.290Z,100.00
2022-07-31T20:43:24.461Z,100.00
2022-07-31T20:45:51.711Z,100.00
2022-07-31T20:48:18.307Z,100.00
2022-07-31T20:50:48.297Z,100.00
2022-07-31T20:53:19.153Z,100.00
2022-07-31T20:55:47.291Z,100.00
2022-07-31T20:58:13.976Z,100.00
2022-07-31T21:00:40.761Z,100.00
2022-07-31T21:03:07.228Z,100.00
2022-07-31T21:05:33.566Z,100.00
2022-07-31T21:08:00.035Z,100.00
2022-07-31T21:10:29.536Z,100.00
2022-07-31T21:12:56.480Z,100.00
2022-07-31T21:15:41.669Z,100.00
2022-07-31T21:18:09.539Z,100.00
2022-07-31T21:20:49.690Z,100.00
2022-07-31T21:23:19.545Z,100.00
2022-07-31T21:25:46.200Z,100.00
2022-07-31T21:28:12.967Z,100.00
2022-07-31T21:30:40.345Z,100.00
2022-07-31T21:33:07.783Z,100.00
2022-07-31T21:35:39.696Z,100.00
2022-07-31T21:38:10.489Z,100.00
2022-07-31T21:40:39.323Z,100.00
2022-07-31T21:43:05.941Z,100.00
2022-07-31T21:45:50.549Z,100.00
2022-07-31T21:48:22.052Z,100.00
2022-07-31T21:50:48.688Z,100.00
2022-07-31T21:53:15.127Z,100.00
2022-07-31T21:55:41.649Z,100.00
2022-07-31T21:58:08.934Z,100.00
2022-07-31T22:00:35.419Z,100.00
2022-07-31T22:03:02.821Z,100.00
2022-07-31T22:05:48.605Z,100.00
2022-07-31T22:08:15.093Z,100.00
2022-07-31T22:10:41.806Z,100.00
2022-07-31T22:13:08.673Z,100.00
2022-07-31T22:15:58.263Z,100.00
2022-07-31T22:18:21.805Z,100.00
2022-07-31T22:20:48.497Z,100.00
2022-07-31T22:23:15.126Z,100.00
2022-07-31T22:25:42.947Z,100.00
2022-07-31T22:28:09.566Z,100.00
2022-07-31T22:30:36.010Z,100.00
2022-07-31T22:33:04.828Z,100.00
2022-07-31T22:35:32.370Z,100.00
2022-07-31T22:37:58.893Z,100.00
2022-07-31T22:40:25.415Z,100.00
2022-07-31T22:42:56.557Z,100.00
2022-07-31T22:45:25.099Z,100.00
2022-07-31T22:47:51.762Z,100.00
2022-07-31T22:50:18.395Z,100.00
2022-07-31T22:52:44.905Z,100.00
2022-07-31T22:55:11.911Z,100.00
2022-07-31T22:57:40.700Z,100.00
2022-07-31T23:00:08.456Z,100.00
2022-07-31T23:02:34.960Z,100.00
2022-07-31T23:05:01.365Z,100.00
2022-07-31T23:07:27.782Z,100.00
2022-07-31T23:09:54.154Z,100.00
2022-07-31T23:12:20.515Z,100.00
2022-07-31T23:14:46.971Z,100.00
2022-07-31T23:17:23.277Z,100.00
2022-07-31T23:19:53.727Z,100.00
2022-07-31T23:22:20.793Z,100.00
2022-07-31T23:25:00.324Z,100.00
2022-07-31T23:27:26.758Z,100.00
2022-07-31T23:29:53.291Z,100.00
2022-07-31T23:32:19.765Z,100.00
2022-07-31T23:34:46.111Z,100.00
2022-07-31T23:37:12.619Z,100.00
2022-07-31T23:39:39.810Z,100.00
2022-07-31T23:42:24.848Z,100.00
2022-07-31T23:44:51.245Z,100.00
2022-07-31T23:47:18.806Z,100.00
2022-07-31T23:49:46.334Z,100.00
2022-07-31T23:52:12.704Z,100.00
2022-07-31T23:54:39.123Z,100.00
2022-07-31T23:57:05.489Z,100.00
2022-07-31T23:59:31.854Z,100.00
